This is the latest recevied weather packets stored in our database for station/object E27EKO-13. If no packets are shown the sender has not sent any weather packets the latest 10 day(s).
| Time | Temp. | Humidity | Pressure | Rain* | Wind** | Luminosity | Snow |
|---|---|---|---|---|---|---|---|
| 1787621693 | 39.44° C | 44% | 1008 hPa | - | - | 0 W/m² | - |
| 1787621371 | 41.67° C | 41% | 1008 hPa | - | - | 0 W/m² | - |
| 1787621049 | 43.89° C | 37% | 1008 hPa | - | - | 0 W/m² | - |
| 1787620727 | 46.67° C | 34% | 1008 hPa | - | - | 0 W/m² | - |
| 1787620405 | 46.11° C | 34% | 1008 hPa | - | - | 0 W/m² | - |
| 1787620083 | 45.56° C | 35% | 1008 hPa | - | - | 0 W/m² | - |
| 1787619761 | 45.56° C | 35% | 1008 hPa | - | - | 0 W/m² | - |
| 1787619439 | 43.89° C | 37% | 1008 hPa | - | - | 0 W/m² | - |
| 1787619009 | 43.89° C | 37% | 1007 hPa | - | - | 0 W/m² | - |
| 1787618687 | 44.44° C | 38% | 1007 hPa | - | - | 0 W/m² | - |
| 1787618365 | 43.89° C | 38% | 1007 hPa | - | - | 0 W/m² | - |
| 1787618043 | 43.89° C | 39% | 1007 hPa | - | - | 0 W/m² | - |
| 1787617721 | 42.78° C | 41% | 1007 hPa | - | - | 0 W/m² | - |
| 1787617399 | 42.22° C | 42% | 1007 hPa | - | - | 0 W/m² | - |
| 1787617077 | 41.11° C | 44% | 1007 hPa | - | - | 0 W/m² | - |
| 1787616972 | 40.56° C | 45% | 1007 hPa | - | - | 0 W/m² | - |
| 1787616635 | 39.44° C | 47% | 1007 hPa | - | - | 0 W/m² | - |
| 1787616313 | 38.33° C | 49% | 1007 hPa | - | - | 0 W/m² | - |
| 1787615991 | 37.78° C | 51% | 1007 hPa | - | - | 0 W/m² | - |
| 1787615669 | 36.67° C | 54% | 1007 hPa | - | - | 0 W/m² | - |
| 1787615347 | 35.56° C | 57% | 1007 hPa | - | - | 0 W/m² | - |
| 1787615158 | 35° C | 59% | 1007 hPa | - | - | 0 W/m² | - |
| 1787614836 | 33.33° C | 64% | 1007 hPa | - | - | 0 W/m² | - |
| 1787614598 | 32.78° C | 66% | 1007 hPa | - | - | 0 W/m² | - |
| 1787614276 | 32.22° C | 68% | 1007 hPa | - | - | 0 W/m² | - |
* Rain since midnight (hover to see other rain measurements)
** Current wind speed in m/s (hover to see current wind gust speed)